sensor_id;sensor_type;location;lat;lon;timestamp;temperature;humidity
18658;DHT22;9458;50.942;5.074;2022-11-21T00:01:15;8.20;99.90
18658;DHT22;9458;50.942;5.074;2022-11-21T00:03:47;8.20;99.90
18658;DHT22;9458;50.942;5.074;2022-11-21T00:06:17;8.20;99.90
18658;DHT22;9458;50.942;5.074;2022-11-21T00:08:45;8.10;99.90
18658;DHT22;9458;50.942;5.074;2022-11-21T00:11:13;8.10;99.90
18658;DHT22;9458;50.942;5.074;2022-11-21T00:13:52;8.10;99.90
18658;DHT22;9458;50.942;5.074;2022-11-21T00:16:20;8.10;99.90
18658;DHT22;9458;50.942;5.074;2022-11-21T00:18:49;8.10;99.90
18658;DHT22;9458;50.942;5.074;2022-11-21T00:21:18;8.10;99.90
18658;DHT22;9458;50.942;5.074;2022-11-21T00:23:46;8.10;99.90
18658;DHT22;9458;50.942;5.074;2022-11-21T00:26:15;8.00;99.90
18658;DHT22;9458;50.942;5.074;2022-11-21T00:28:43;8.00;99.90
18658;DHT22;9458;50.942;5.074;2022-11-21T00:31:18;8.00;99.90
18658;DHT22;9458;50.942;5.074;2022-11-21T00:33:49;8.10;99.90
18658;DHT22;9458;50.942;5.074;2022-11-21T00:36:17;8.10;99.90
18658;DHT22;9458;50.942;5.074;2022-11-21T00:38:45;8.20;99.90
18658;DHT22;9458;50.942;5.074;2022-11-21T00:41:13;8.10;99.90
18658;DHT22;9458;50.942;5.074;2022-11-21T00:43:42;8.10;99.90
18658;DHT22;9458;50.942;5.074;2022-11-21T00:46:10;8.10;99.90
18658;DHT22;9458;50.942;5.074;2022-11-21T00:48:38;8.20;99.90
18658;DHT22;9458;50.942;5.074;2022-11-21T00:51:08;8.20;99.90
18658;DHT22;9458;50.942;5.074;2022-11-21T00:53:36;8.30;99.90
18658;DHT22;9458;50.942;5.074;2022-11-21T00:56:04;8.20;99.90
18658;DHT22;9458;50.942;5.074;2022-11-21T00:58:32;8.30;99.90
18658;DHT22;9458;50.942;5.074;2022-11-21T01:01:05;8.30;99.90
18658;DHT22;9458;50.942;5.074;2022-11-21T01:03:36;8.40;99.90
18658;DHT22;9458;50.942;5.074;2022-11-21T01:06:09;8.40;99.90
18658;DHT22;9458;50.942;5.074;2022-11-21T01:08:40;8.40;99.90
18658;DHT22;9458;50.942;5.074;2022-11-21T01:11:12;8.40;99.90
18658;DHT22;9458;50.942;5.074;2022-11-21T01:13:42;8.40;99.90
18658;DHT22;9458;50.942;5.074;2022-11-21T01:16:13;8.30;99.90
18658;DHT22;9458;50.942;5.074;2022-11-21T01:18:42;8.30;99.90
18658;DHT22;9458;50.942;5.074;2022-11-21T01:21:22;8.30;99.90
18658;DHT22;9458;50.942;5.074;2022-11-21T01:23:51;8.30;99.90
18658;DHT22;9458;50.942;5.074;2022-11-21T01:26:25;8.30;99.90
18658;DHT22;9458;50.942;5.074;2022-11-21T01:29:03;8.30;99.90
18658;DHT22;9458;50.942;5.074;2022-11-21T01:31:33;8.20;99.90
18658;DHT22;9458;50.942;5.074;2022-11-21T01:34:02;8.20;99.90
18658;DHT22;9458;50.942;5.074;2022-11-21T01:36:32;8.20;99.90
18658;DHT22;9458;50.942;5.074;2022-11-21T01:39:02;8.20;99.90
18658;DHT22;9458;50.942;5.074;2022-11-21T01:41:32;8.20;99.90
18658;DHT22;9458;50.942;5.074;2022-11-21T01:44:00;8.10;99.90
18658;DHT22;9458;50.942;5.074;2022-11-21T01:46:29;8.10;99.90
18658;DHT22;9458;50.942;5.074;2022-11-21T01:49:00;8.10;99.90
18658;DHT22;9458;50.942;5.074;2022-11-21T01:51:35;8.10;99.90
18658;DHT22;9458;50.942;5.074;2022-11-21T01:54:08;8.20;99.90
18658;DHT22;9458;50.942;5.074;2022-11-21T01:56:42;8.20;99.90
18658;DHT22;9458;50.942;5.074;2022-11-21T01:59:13;8.20;99.90
18658;DHT22;9458;50.942;5.074;2022-11-21T02:01:43;8.20;99.90
18658;DHT22;9458;50.942;5.074;2022-11-21T02:04:12;8.20;99.90
18658;DHT22;9458;50.942;5.074;2022-11-21T02:06:41;8.20;99.90
18658;DHT22;9458;50.942;5.074;2022-11-21T02:09:10;8.20;99.90
18658;DHT22;9458;50.942;5.074;2022-11-21T02:11:39;8.20;99.90
18658;DHT22;9458;50.942;5.074;2022-11-21T02:14:11;8.20;99.90
18658;DHT22;9458;50.942;5.074;2022-11-21T02:16:39;8.20;99.90
18658;DHT22;9458;50.942;5.074;2022-11-21T02:19:10;8.20;99.90
18658;DHT22;9458;50.942;5.074;2022-11-21T02:21:47;8.30;99.90
18658;DHT22;9458;50.942;5.074;2022-11-21T02:24:23;8.30;99.90
18658;DHT22;9458;50.942;5.074;2022-11-21T02:26:54;8.30;99.90
18658;DHT22;9458;50.942;5.074;2022-11-21T02:29:22;8.30;99.90
18658;DHT22;9458;50.942;5.074;2022-11-21T02:31:50;8.30;99.90
18658;DHT22;9458;50.942;5.074;2022-11-21T02:34:17;8.30;99.90
18658;DHT22;9458;50.942;5.074;2022-11-21T02:36:47;8.30;99.90
18658;DHT22;9458;50.942;5.074;2022-11-21T02:39:18;8.30;99.90
18658;DHT22;9458;50.942;5.074;2022-11-21T02:41:56;8.30;99.90
18658;DHT22;9458;50.942;5.074;2022-11-21T02:44:31;8.30;99.90
18658;DHT22;9458;50.942;5.074;2022-11-21T02:47:05;8.30;99.90
18658;DHT22;9458;50.942;5.074;2022-11-21T02:49:41;8.30;99.90
18658;DHT22;9458;50.942;5.074;2022-11-21T02:52:13;8.30;99.90
18658;DHT22;9458;50.942;5.074;2022-11-21T02:54:42;8.30;99.90
18658;DHT22;9458;50.942;5.074;2022-11-21T02:57:13;8.20;99.90
18658;DHT22;9458;50.942;5.074;2022-11-21T02:59:42;8.30;99.90
18658;DHT22;9458;50.942;5.074;2022-11-21T03:02:11;8.30;99.90
18658;DHT22;9458;50.942;5.074;2022-11-21T03:04:41;8.30;99.90
18658;DHT22;9458;50.942;5.074;2022-11-21T03:07:10;8.40;99.90
18658;DHT22;9458;50.942;5.074;2022-11-21T03:09:40;8.30;99.90
18658;DHT22;9458;50.942;5.074;2022-11-21T03:12:09;8.40;99.90
18658;DHT22;9458;50.942;5.074;2022-11-21T03:14:40;8.40;99.90
18658;DHT22;9458;50.942;5.074;2022-11-21T03:17:10;8.30;99.90
18658;DHT22;9458;50.942;5.074;2022-11-21T03:19:39;8.30;99.90
18658;DHT22;9458;50.942;5.074;2022-11-21T03:22:10;8.30;99.90
18658;DHT22;9458;50.942;5.074;2022-11-21T03:24:39;8.30;99.90
18658;DHT22;9458;50.942;5.074;2022-11-21T03:27:08;8.30;99.90
18658;DHT22;9458;50.942;5.074;2022-11-21T03:29:37;8.30;99.90
18658;DHT22;9458;50.942;5.074;2022-11-21T03:32:10;8.30;99.90
18658;DHT22;9458;50.942;5.074;2022-11-21T03:34:38;8.20;99.90
18658;DHT22;9458;50.942;5.074;2022-11-21T03:37:07;8.30;99.90
18658;DHT22;9458;50.942;5.074;2022-11-21T03:39:36;8.30;99.90
18658;DHT22;9458;50.942;5.074;2022-11-21T03:42:04;8.30;99.90
18658;DHT22;9458;50.942;5.074;2022-11-21T03:44:32;8.30;99.90
18658;DHT22;9458;50.942;5.074;2022-11-21T03:47:02;8.30;99.90
18658;DHT22;9458;50.942;5.074;2022-11-21T03:49:33;8.30;99.90
18658;DHT22;9458;50.942;5.074;2022-11-21T03:52:04;8.30;99.90
18658;DHT22;9458;50.942;5.074;2022-11-21T03:54:33;8.30;99.90
18658;DHT22;9458;50.942;5.074;2022-11-21T03:57:07;8.30;99.90
18658;DHT22;9458;50.942;5.074;2022-11-21T03:59:37;8.30;99.90
18658;DHT22;9458;50.942;5.074;2022-11-21T04:02:06;8.30;99.90
18658;DHT22;9458;50.942;5.074;2022-11-21T04:04:42;8.30;99.90
18658;DHT22;9458;50.942;5.074;2022-11-21T04:07:11;8.30;99.90
18658;DHT22;9458;50.942;5.074;2022-11-21T04:09:45;8.30;99.90
18658;DHT22;9458;50.942;5.074;2022-11-21T04:12:16;8.30;99.90
18658;DHT22;9458;50.942;5.074;2022-11-21T04:14:44;8.30;99.90
18658;DHT22;9458;50.942;5.074;2022-11-21T04:17:15;8.30;99.90
18658;DHT22;9458;50.942;5.074;2022-11-21T04:19:47;8.20;99.90
18658;DHT22;9458;50.942;5.074;2022-11-21T04:22:23;8.20;99.90
18658;DHT22;9458;50.942;5.074;2022-11-21T04:24:53;8.20;99.90
18658;DHT22;9458;50.942;5.074;2022-11-21T04:27:21;8.20;99.90
18658;DHT22;9458;50.942;5.074;2022-11-21T04:29:50;8.20;99.90
18658;DHT22;9458;50.942;5.074;2022-11-21T04:32:19;8.20;99.90
18658;DHT22;9458;50.942;5.074;2022-11-21T04:34:49;8.20;99.90
18658;DHT22;9458;50.942;5.074;2022-11-21T04:37:17;8.20;99.90
18658;DHT22;9458;50.942;5.074;2022-11-21T04:39:45;8.20;99.90
18658;DHT22;9458;50.942;5.074;2022-11-21T04:42:15;8.20;99.90
18658;DHT22;9458;50.942;5.074;2022-11-21T04:44:44;8.20;99.90
18658;DHT22;9458;50.942;5.074;2022-11-21T04:47:13;8.30;99.90
18658;DHT22;9458;50.942;5.074;2022-11-21T04:49:42;8.30;99.90
18658;DHT22;9458;50.942;5.074;2022-11-21T04:52:13;8.20;99.90
18658;DHT22;9458;50.942;5.074;2022-11-21T04:54:46;8.20;99.90
18658;DHT22;9458;50.942;5.074;2022-11-21T04:57:15;8.20;99.90
18658;DHT22;9458;50.942;5.074;2022-11-21T04:59:44;8.20;99.90
18658;DHT22;9458;50.942;5.074;2022-11-21T05:02:12;8.10;99.90
18658;DHT22;9458;50.942;5.074;2022-11-21T05:04:40;8.10;99.90
18658;DHT22;9458;50.942;5.074;2022-11-21T05:07:09;8.00;99.90
18658;DHT22;9458;50.942;5.074;2022-11-21T05:09:40;8.00;99.90
18658;DHT22;9458;50.942;5.074;2022-11-21T05:12:09;7.90;99.90
18658;DHT22;9458;50.942;5.074;2022-11-21T05:14:55;7.90;99.90
18658;DHT22;9458;50.942;5.074;2022-11-21T05:17:24;7.90;99.90
18658;DHT22;9458;50.942;5.074;2022-11-21T05:19:56;7.80;99.90
18658;DHT22;9458;50.942;5.074;2022-11-21T05:22:26;7.80;99.90
18658;DHT22;9458;50.942;5.074;2022-11-21T05:24:56;7.80;99.90
18658;DHT22;9458;50.942;5.074;2022-11-21T05:27:25;7.80;99.90
18658;DHT22;9458;50.942;5.074;2022-11-21T05:29:53;7.80;99.90
18658;DHT22;9458;50.942;5.074;2022-11-21T05:32:22;7.80;99.90
18658;DHT22;9458;50.942;5.074;2022-11-21T05:34:51;7.90;99.90
18658;DHT22;9458;50.942;5.074;2022-11-21T05:37:20;7.90;99.90
18658;DHT22;9458;50.942;5.074;2022-11-21T05:39:49;7.90;99.90
18658;DHT22;9458;50.942;5.074;2022-11-21T05:42:21;7.90;99.90
18658;DHT22;9458;50.942;5.074;2022-11-21T05:45:10;7.90;99.90
18658;DHT22;9458;50.942;5.074;2022-11-21T05:47:40;7.90;99.90
18658;DHT22;9458;50.942;5.074;2022-11-21T05:50:11;7.90;99.90
18658;DHT22;9458;50.942;5.074;2022-11-21T05:52:41;7.90;99.90
18658;DHT22;9458;50.942;5.074;2022-11-21T05:55:11;7.90;99.90
18658;DHT22;9458;50.942;5.074;2022-11-21T05:57:42;7.90;99.90
18658;DHT22;9458;50.942;5.074;2022-11-21T06:00:12;7.90;99.90
18658;DHT22;9458;50.942;5.074;2022-11-21T06:02:42;7.90;99.90
18658;DHT22;9458;50.942;5.074;2022-11-21T06:05:27;7.90;99.90
18658;DHT22;9458;50.942;5.074;2022-11-21T06:07:59;7.90;99.90
18658;DHT22;9458;50.942;5.074;2022-11-21T06:10:29;7.90;99.90
18658;DHT22;9458;50.942;5.074;2022-11-21T06:13:02;7.90;99.90
18658;DHT22;9458;50.942;5.074;2022-11-21T06:15:48;7.90;99.90
18658;DHT22;9458;50.942;5.074;2022-11-21T06:18:17;7.90;99.90
18658;DHT22;9458;50.942;5.074;2022-11-21T06:20:49;7.90;99.90
18658;DHT22;9458;50.942;5.074;2022-11-21T06:23:17;7.90;99.90
18658;DHT22;9458;50.942;5.074;2022-11-21T06:25:46;7.90;99.90
18658;DHT22;9458;50.942;5.074;2022-11-21T06:28:15;7.90;99.90
18658;DHT22;9458;50.942;5.074;2022-11-21T06:30:43;7.90;99.90
18658;DHT22;9458;50.942;5.074;2022-11-21T06:33:11;7.80;99.90
18658;DHT22;9458;50.942;5.074;2022-11-21T06:35:39;7.80;99.90
18658;DHT22;9458;50.942;5.074;2022-11-21T06:38:06;7.80;99.90
18658;DHT22;9458;50.942;5.074;2022-11-21T06:40:35;7.80;99.90
18658;DHT22;9458;50.942;5.074;2022-11-21T06:43:03;7.90;99.90
18658;DHT22;9458;50.942;5.074;2022-11-21T06:45:33;7.90;99.90
18658;DHT22;9458;50.942;5.074;2022-11-21T06:48:02;8.00;99.90
18658;DHT22;9458;50.942;5.074;2022-11-21T06:50:30;8.00;99.90
18658;DHT22;9458;50.942;5.074;2022-11-21T06:52:58;7.90;99.90
18658;DHT22;9458;50.942;5.074;2022-11-21T06:55:29;7.90;99.90
18658;DHT22;9458;50.942;5.074;2022-11-21T06:57:58;7.90;99.90
18658;DHT22;9458;50.942;5.074;2022-11-21T07:00:26;7.90;99.90
18658;DHT22;9458;50.942;5.074;2022-11-21T07:02:59;7.80;99.90
18658;DHT22;9458;50.942;5.074;2022-11-21T07:05:27;7.80;99.90
18658;DHT22;9458;50.942;5.074;2022-11-21T07:07:57;7.70;99.90
18658;DHT22;9458;50.942;5.074;2022-11-21T07:10:26;7.70;99.90
18658;DHT22;9458;50.942;5.074;2022-11-21T07:12:56;7.70;99.90
18658;DHT22;9458;50.942;5.074;2022-11-21T07:15:41;7.60;99.90
18658;DHT22;9458;50.942;5.074;2022-11-21T07:18:10;7.60;99.90
18658;DHT22;9458;50.942;5.074;2022-11-21T07:20:40;7.60;99.90
18658;DHT22;9458;50.942;5.074;2022-11-21T07:23:09;7.50;99.90
18658;DHT22;9458;50.942;5.074;2022-11-21T07:25:38;7.50;99.90
18658;DHT22;9458;50.942;5.074;2022-11-21T07:28:09;7.60;99.90
18658;DHT22;9458;50.942;5.074;2022-11-21T07:30:37;7.60;99.90
18658;DHT22;9458;50.942;5.074;2022-11-21T07:33:06;7.80;99.90
18658;DHT22;9458;50.942;5.074;2022-11-21T07:35:36;8.00;99.90
18658;DHT22;9458;50.942;5.074;2022-11-21T07:38:05;8.10;99.90
18658;DHT22;9458;50.942;5.074;2022-11-21T07:40:33;8.20;99.90
18658;DHT22;9458;50.942;5.074;2022-11-21T07:43:03;8.50;99.90
18658;DHT22;9458;50.942;5.074;2022-11-21T07:45:32;8.80;99.90
18658;DHT22;9458;50.942;5.074;2022-11-21T07:48:01;9.20;99.90
18658;DHT22;9458;50.942;5.074;2022-11-21T07:50:30;9.20;99.90
18658;DHT22;9458;50.942;5.074;2022-11-21T07:53:02;9.00;99.90
18658;DHT22;9458;50.942;5.074;2022-11-21T07:55:31;8.80;99.90
18658;DHT22;9458;50.942;5.074;2022-11-21T07:57:59;9.10;99.90
18658;DHT22;9458;50.942;5.074;2022-11-21T08:00:28;9.80;99.90
18658;DHT22;9458;50.942;5.074;2022-11-21T08:02:56;10.50;99.90
18658;DHT22;9458;50.942;5.074;2022-11-21T08:05:23;11.10;99.90
18658;DHT22;9458;50.942;5.074;2022-11-21T08:07:51;11.60;99.90
18658;DHT22;9458;50.942;5.074;2022-11-21T08:10:20;11.90;99.90
18658;DHT22;9458;50.942;5.074;2022-11-21T08:12:48;12.00;99.90
18658;DHT22;9458;50.942;5.074;2022-11-21T08:15:16;11.70;99.90
18658;DHT22;9458;50.942;5.074;2022-11-21T08:17:43;11.10;99.90
18658;DHT22;9458;50.942;5.074;2022-11-21T08:20:11;10.60;99.90
18658;DHT22;9458;50.942;5.074;2022-11-21T08:22:39;10.30;99.90
18658;DHT22;9458;50.942;5.074;2022-11-21T08:25:08;10.10;99.90
18658;DHT22;9458;50.942;5.074;2022-11-21T08:27:38;10.10;99.90
18658;DHT22;9458;50.942;5.074;2022-11-21T08:30:10;10.20;99.90
18658;DHT22;9458;50.942;5.074;2022-11-21T08:32:38;10.30;99.90
18658;DHT22;9458;50.942;5.074;2022-11-21T08:35:06;10.60;99.90
18658;DHT22;9458;50.942;5.074;2022-11-21T08:37:34;11.10;99.90
18658;DHT22;9458;50.942;5.074;2022-11-21T08:40:01;12.10;99.90
18658;DHT22;9458;50.942;5.074;2022-11-21T08:42:30;13.10;99.90
18658;DHT22;9458;50.942;5.074;2022-11-21T08:44:59;13.70;99.90
18658;DHT22;9458;50.942;5.074;2022-11-21T08:47:28;13.90;99.90
18658;DHT22;9458;50.942;5.074;2022-11-21T08:49:58;14.10;99.90
18658;DHT22;9458;50.942;5.074;2022-11-21T08:52:25;14.40;99.90
18658;DHT22;9458;50.942;5.074;2022-11-21T08:54:56;14.50;99.90
18658;DHT22;9458;50.942;5.074;2022-11-21T08:57:23;14.00;99.90
18658;DHT22;9458;50.942;5.074;2022-11-21T08:59:51;13.60;99.90
18658;DHT22;9458;50.942;5.074;2022-11-21T09:02:20;13.50;99.90
18658;DHT22;9458;50.942;5.074;2022-11-21T09:04:48;13.60;99.90
18658;DHT22;9458;50.942;5.074;2022-11-21T09:07:15;13.50;99.90
18658;DHT22;9458;50.942;5.074;2022-11-21T09:09:43;13.10;99.90
18658;DHT22;9458;50.942;5.074;2022-11-21T09:12:10;12.70;99.90
18658;DHT22;9458;50.942;5.074;2022-11-21T09:14:39;12.40;99.90
18658;DHT22;9458;50.942;5.074;2022-11-21T09:17:26;12.00;99.90
18658;DHT22;9458;50.942;5.074;2022-11-21T09:20:10;11.60;99.90
18658;DHT22;9458;50.942;5.074;2022-11-21T09:22:39;11.30;99.90
18658;DHT22;9458;50.942;5.074;2022-11-21T09:25:07;11.20;99.90
18658;DHT22;9458;50.942;5.074;2022-11-21T09:27:35;11.00;99.90
18658;DHT22;9458;50.942;5.074;2022-11-21T09:30:03;10.80;99.90
18658;DHT22;9458;50.942;5.074;2022-11-21T09:32:33;10.70;99.90
18658;DHT22;9458;50.942;5.074;2022-11-21T09:35:02;10.60;99.90
18658;DHT22;9458;50.942;5.074;2022-11-21T09:37:35;10.50;99.90
18658;DHT22;9458;50.942;5.074;2022-11-21T09:40:04;10.50;99.90
18658;DHT22;9458;50.942;5.074;2022-11-21T09:42:59;10.40;99.90
18658;DHT22;9458;50.942;5.074;2022-11-21T09:45:31;10.30;99.90
18658;DHT22;9458;50.942;5.074;2022-11-21T09:48:08;10.20;99.90
18658;DHT22;9458;50.942;5.074;2022-11-21T09:50:40;10.20;99.90
18658;DHT22;9458;50.942;5.074;2022-11-21T09:53:10;10.10;99.90
18658;DHT22;9458;50.942;5.074;2022-11-21T09:55:43;10.10;99.90
18658;DHT22;9458;50.942;5.074;2022-11-21T09:58:22;10.00;99.90
18658;DHT22;9458;50.942;5.074;2022-11-21T10:00:51;10.00;99.90
18658;DHT22;9458;50.942;5.074;2022-11-21T10:03:23;10.00;99.90
18658;DHT22;9458;50.942;5.074;2022-11-21T10:05:53;10.00;99.90
18658;DHT22;9458;50.942;5.074;2022-11-21T10:08:28;10.00;99.90
18658;DHT22;9458;50.942;5.074;2022-11-21T10:11:07;10.00;99.90
18658;DHT22;9458;50.942;5.074;2022-11-21T10:13:48;10.00;99.90
18658;DHT22;9458;50.942;5.074;2022-11-21T10:16:22;9.90;99.90
18658;DHT22;9458;50.942;5.074;2022-11-21T10:19:07;9.90;99.90
18658;DHT22;9458;50.942;5.074;2022-11-21T10:22:04;10.00;99.90
18658;DHT22;9458;50.942;5.074;2022-11-21T10:24:43;10.00;99.90
18658;DHT22;9458;50.942;5.074;2022-11-21T10:27:17;10.00;99.90
18658;DHT22;9458;50.942;5.074;2022-11-21T10:29:48;10.00;99.90
18658;DHT22;9458;50.942;5.074;2022-11-21T10:32:22;10.10;99.90
18658;DHT22;9458;50.942;5.074;2022-11-21T10:34:56;10.10;99.90
18658;DHT22;9458;50.942;5.074;2022-11-21T10:37:31;10.10;99.90
18658;DHT22;9458;50.942;5.074;2022-11-21T10:40:09;10.10;99.90
18658;DHT22;9458;50.942;5.074;2022-11-21T10:42:47;10.10;99.90
18658;DHT22;9458;50.942;5.074;2022-11-21T10:45:17;10.20;99.90
18658;DHT22;9458;50.942;5.074;2022-11-21T10:47:47;10.20;99.90
18658;DHT22;9458;50.942;5.074;2022-11-21T10:50:32;10.20;99.90
18658;DHT22;9458;50.942;5.074;2022-11-21T10:53:11;10.20;99.90
18658;DHT22;9458;50.942;5.074;2022-11-21T10:56:01;10.30;99.90
18658;DHT22;9458;50.942;5.074;2022-11-21T10:58:39;10.30;99.90
18658;DHT22;9458;50.942;5.074;2022-11-21T11:01:20;10.30;99.90
18658;DHT22;9458;50.942;5.074;2022-11-21T11:04:05;10.30;99.90
18658;DHT22;9458;50.942;5.074;2022-11-21T11:06:35;10.30;99.90
18658;DHT22;9458;50.942;5.074;2022-11-21T11:09:05;10.40;99.90
18658;DHT22;9458;50.942;5.074;2022-11-21T11:11:33;10.40;99.90
18658;DHT22;9458;50.942;5.074;2022-11-21T11:14:03;10.40;99.90
18658;DHT22;9458;50.942;5.074;2022-11-21T11:16:34;10.40;99.90
18658;DHT22;9458;50.942;5.074;2022-11-21T11:19:05;10.30;99.90
18658;DHT22;9458;50.942;5.074;2022-11-21T11:21:43;10.20;99.90
18658;DHT22;9458;50.942;5.074;2022-11-21T11:24:21;10.20;99.90
18658;DHT22;9458;50.942;5.074;2022-11-21T11:26:55;10.20;99.90
18658;DHT22;9458;50.942;5.074;2022-11-21T11:29:25;10.20;99.90
18658;DHT22;9458;50.942;5.074;2022-11-21T11:31:56;10.10;99.90
18658;DHT22;9458;50.942;5.074;2022-11-21T11:34:35;10.10;99.90
18658;DHT22;9458;50.942;5.074;2022-11-21T11:37:11;10.10;99.90
18658;DHT22;9458;50.942;5.074;2022-11-21T11:39:47;10.10;99.90
18658;DHT22;9458;50.942;5.074;2022-11-21T11:42:44;10.10;99.90
18658;DHT22;9458;50.942;5.074;2022-11-21T11:45:55;10.10;99.90
18658;DHT22;9458;50.942;5.074;2022-11-21T11:48:54;10.10;99.90
18658;DHT22;9458;50.942;5.074;2022-11-21T11:51:29;10.10;99.90
18658;DHT22;9458;50.942;5.074;2022-11-21T11:54:02;10.10;99.90
18658;DHT22;9458;50.942;5.074;2022-11-21T11:56:35;10.20;99.90
18658;DHT22;9458;50.942;5.074;2022-11-21T11:59:10;10.10;99.90
18658;DHT22;9458;50.942;5.074;2022-11-21T12:01:41;10.20;99.90
18658;DHT22;9458;50.942;5.074;2022-11-21T12:04:12;10.20;99.90
18658;DHT22;9458;50.942;5.074;2022-11-21T12:06:45;10.20;99.90
18658;DHT22;9458;50.942;5.074;2022-11-21T12:09:22;10.20;99.90
18658;DHT22;9458;50.942;5.074;2022-11-21T12:11:58;10.20;99.90
18658;DHT22;9458;50.942;5.074;2022-11-21T12:14:46;10.20;99.90
18658;DHT22;9458;50.942;5.074;2022-11-21T12:17:38;10.20;99.90
18658;DHT22;9458;50.942;5.074;2022-11-21T12:20:14;10.20;99.90
18658;DHT22;9458;50.942;5.074;2022-11-21T12:22:43;10.30;99.90
18658;DHT22;9458;50.942;5.074;2022-11-21T12:25:13;10.30;99.90
18658;DHT22;9458;50.942;5.074;2022-11-21T12:27:44;10.30;99.90
18658;DHT22;9458;50.942;5.074;2022-11-21T12:30:37;10.30;99.90
18658;DHT22;9458;50.942;5.074;2022-11-21T12:33:18;10.30;99.90
18658;DHT22;9458;50.942;5.074;2022-11-21T12:36:03;10.30;99.90
18658;DHT22;9458;50.942;5.074;2022-11-21T12:39:02;10.30;99.90
18658;DHT22;9458;50.942;5.074;2022-11-21T12:41:42;10.30;99.90
18658;DHT22;9458;50.942;5.074;2022-11-21T12:44:48;10.40;99.90
18658;DHT22;9458;50.942;5.074;2022-11-21T12:47:34;10.40;99.90
18658;DHT22;9458;50.942;5.074;2022-11-21T12:50:31;10.40;99.90
18658;DHT22;9458;50.942;5.074;2022-11-21T12:53:25;10.40;99.90
18658;DHT22;9458;50.942;5.074;2022-11-21T12:56:16;10.40;99.90
18658;DHT22;9458;50.942;5.074;2022-11-21T12:58:53;10.40;99.90
18658;DHT22;9458;50.942;5.074;2022-11-21T13:01:28;10.50;99.90
18658;DHT22;9458;50.942;5.074;2022-11-21T13:03:59;10.50;99.90
18658;DHT22;9458;50.942;5.074;2022-11-21T13:06:31;10.60;99.90
18658;DHT22;9458;50.942;5.074;2022-11-21T13:09:03;10.60;99.90
18658;DHT22;9458;50.942;5.074;2022-11-21T13:11:39;10.60;99.90
18658;DHT22;9458;50.942;5.074;2022-11-21T13:14:31;10.60;99.90
18658;DHT22;9458;50.942;5.074;2022-11-21T13:17:22;10.60;99.90
18658;DHT22;9458;50.942;5.074;2022-11-21T13:19:56;10.50;99.90
18658;DHT22;9458;50.942;5.074;2022-11-21T13:22:47;10.50;99.90
18658;DHT22;9458;50.942;5.074;2022-11-21T13:28:30;10.50;99.90
18658;DHT22;9458;50.942;5.074;2022-11-21T13:31:02;10.50;99.90
18658;DHT22;9458;50.942;5.074;2022-11-21T13:33:55;10.50;99.90
18658;DHT22;9458;50.942;5.074;2022-11-21T13:36:39;10.50;99.90
18658;DHT22;9458;50.942;5.074;2022-11-21T13:39:33;10.50;99.90
18658;DHT22;9458;50.942;5.074;2022-11-21T13:42:03;10.50;99.90
18658;DHT22;9458;50.942;5.074;2022-11-21T13:44:49;10.50;99.90
18658;DHT22;9458;50.942;5.074;2022-11-21T13:47:48;10.50;99.90
18658;DHT22;9458;50.942;5.074;2022-11-21T13:50:31;10.50;99.90
18658;DHT22;9458;50.942;5.074;2022-11-21T13:53:15;10.50;99.90
18658;DHT22;9458;50.942;5.074;2022-11-21T13:55:54;10.50;99.90
18658;DHT22;9458;50.942;5.074;2022-11-21T13:58:32;10.50;99.90
18658;DHT22;9458;50.942;5.074;2022-11-21T14:01:20;10.50;99.90
18658;DHT22;9458;50.942;5.074;2022-11-21T14:06:54;10.50;99.90
18658;DHT22;9458;50.942;5.074;2022-11-21T14:09:26;10.50;99.90
18658;DHT22;9458;50.942;5.074;2022-11-21T14:12:01;10.50;99.90
18658;DHT22;9458;50.942;5.074;2022-11-21T14:14:33;10.50;99.90
18658;DHT22;9458;50.942;5.074;2022-11-21T14:17:26;10.50;99.90
18658;DHT22;9458;50.942;5.074;2022-11-21T14:20:00;10.40;99.90
18658;DHT22;9458;50.942;5.074;2022-11-21T14:22:38;10.40;99.90
18658;DHT22;9458;50.942;5.074;2022-11-21T14:25:08;10.40;99.90
18658;DHT22;9458;50.942;5.074;2022-11-21T14:27:45;10.40;99.90
18658;DHT22;9458;50.942;5.074;2022-11-21T14:30:31;10.40;99.90
18658;DHT22;9458;50.942;5.074;2022-11-21T14:36:01;10.30;99.90
18658;DHT22;9458;50.942;5.074;2022-11-21T14:38:33;10.30;99.90
18658;DHT22;9458;50.942;5.074;2022-11-21T14:41:25;10.30;99.90
18658;DHT22;9458;50.942;5.074;2022-11-21T14:44:19;10.30;99.90
18658;DHT22;9458;50.942;5.074;2022-11-21T14:46:50;10.30;99.90
18658;DHT22;9458;50.942;5.074;2022-11-21T14:49:23;10.20;99.90
18658;DHT22;9458;50.942;5.074;2022-11-21T14:52:00;10.20;99.90
18658;DHT22;9458;50.942;5.074;2022-11-21T14:54:30;10.20;99.90
18658;DHT22;9458;50.942;5.074;2022-11-21T14:57:00;10.20;99.90
18658;DHT22;9458;50.942;5.074;2022-11-21T14:59:31;10.20;99.90
18658;DHT22;9458;50.942;5.074;2022-11-21T15:02:01;10.20;99.90
18658;DHT22;9458;50.942;5.074;2022-11-21T15:04:31;10.20;99.90
18658;DHT22;9458;50.942;5.074;2022-11-21T15:07:02;10.20;99.90
18658;DHT22;9458;50.942;5.074;2022-11-21T15:09:30;10.20;99.90
18658;DHT22;9458;50.942;5.074;2022-11-21T15:12:00;10.10;99.90
18658;DHT22;9458;50.942;5.074;2022-11-21T15:14:35;10.10;99.90
18658;DHT22;9458;50.942;5.074;2022-11-21T15:17:06;10.10;99.90
18658;DHT22;9458;50.942;5.074;2022-11-21T15:19:35;10.10;99.90
18658;DHT22;9458;50.942;5.074;2022-11-21T15:22:04;10.10;99.90
18658;DHT22;9458;50.942;5.074;2022-11-21T15:24:39;10.10;99.90
18658;DHT22;9458;50.942;5.074;2022-11-21T15:27:29;10.10;99.90
18658;DHT22;9458;50.942;5.074;2022-11-21T15:33:01;10.10;99.90
18658;DHT22;9458;50.942;5.074;2022-11-21T15:35:40;10.00;99.90
18658;DHT22;9458;50.942;5.074;2022-11-21T15:38:29;10.00;99.90
18658;DHT22;9458;50.942;5.074;2022-11-21T15:41:00;10.00;99.90
18658;DHT22;9458;50.942;5.074;2022-11-21T15:43:34;10.10;99.90
18658;DHT22;9458;50.942;5.074;2022-11-21T15:46:03;10.00;99.90
18658;DHT22;9458;50.942;5.074;2022-11-21T15:48:32;10.00;99.90
18658;DHT22;9458;50.942;5.074;2022-11-21T15:51:00;10.00;99.90
18658;DHT22;9458;50.942;5.074;2022-11-21T15:53:31;10.00;99.90
18658;DHT22;9458;50.942;5.074;2022-11-21T15:55:59;10.00;99.90
18658;DHT22;9458;50.942;5.074;2022-11-21T15:58:27;10.00;99.90
18658;DHT22;9458;50.942;5.074;2022-11-21T16:00:54;10.00;99.90
18658;DHT22;9458;50.942;5.074;2022-11-21T16:03:24;10.00;99.90
18658;DHT22;9458;50.942;5.074;2022-11-21T16:05:51;9.90;99.90
18658;DHT22;9458;50.942;5.074;2022-11-21T16:08:18;9.90;99.90
18658;DHT22;9458;50.942;5.074;2022-11-21T16:10:50;9.90;99.90
18658;DHT22;9458;50.942;5.074;2022-11-21T16:13:18;9.90;99.90
18658;DHT22;9458;50.942;5.074;2022-11-21T16:15:46;9.90;99.90
18658;DHT22;9458;50.942;5.074;2022-11-21T16:18:14;9.90;99.90
18658;DHT22;9458;50.942;5.074;2022-11-21T16:20:41;9.90;99.90
18658;DHT22;9458;50.942;5.074;2022-11-21T16:23:10;9.90;99.90
18658;DHT22;9458;50.942;5.074;2022-11-21T16:25:52;9.90;99.90
18658;DHT22;9458;50.942;5.074;2022-11-21T16:28:20;9.90;99.90
18658;DHT22;9458;50.942;5.074;2022-11-21T16:30:48;9.90;99.90
18658;DHT22;9458;50.942;5.074;2022-11-21T16:33:16;9.90;99.90
18658;DHT22;9458;50.942;5.074;2022-11-21T16:35:44;9.90;99.90
18658;DHT22;9458;50.942;5.074;2022-11-21T16:38:12;9.90;99.90
18658;DHT22;9458;50.942;5.074;2022-11-21T16:40:39;9.90;99.90
18658;DHT22;9458;50.942;5.074;2022-11-21T16:43:11;9.90;99.90